createdAt,value
2022-09-12T00:02:10.353Z,5.12
2022-09-12T00:04:57.516Z,5.75
2022-09-12T00:07:43.817Z,5.47
2022-09-12T00:10:30.336Z,4.82
2022-09-12T00:13:16.549Z,5.62
2022-09-12T00:16:03.267Z,4.97
2022-09-12T00:18:49.511Z,4.35
2022-09-12T00:21:37.421Z,5.53
2022-09-12T00:24:23.485Z,4.57
2022-09-12T00:27:09.884Z,4.57
2022-09-12T00:29:55.626Z,5.18
2022-09-12T00:32:41.932Z,6.25
2022-09-12T00:35:27.749Z,7.12
2022-09-12T00:38:14.415Z,7.70
2022-09-12T00:41:00.360Z,4.50
2022-09-12T00:44:04.948Z,5.75
2022-09-12T00:47:01.239Z,5.07
2022-09-12T00:50:10.017Z,5.62
2022-09-12T00:53:00.180Z,5.85
2022-09-12T00:55:49.489Z,5.32
2022-09-12T00:58:51.643Z,4.55
2022-09-12T01:01:38.989Z,4.68
2022-09-12T01:04:26.800Z,4.87
2022-09-12T01:07:13.467Z,4.40
2022-09-12T01:09:59.603Z,4.82
2022-09-12T01:12:46.495Z,6.22
2022-09-12T01:15:32.443Z,6.22
2022-09-12T01:18:25.231Z,7.95
2022-09-12T01:21:30.482Z,8.02
2022-09-12T01:24:26.272Z,9.82
2022-09-12T01:27:15.285Z,7.78
2022-09-12T01:30:19.621Z,8.70
2022-09-12T01:33:30.681Z,8.70
2022-09-12T01:36:24.198Z,7.77
2022-09-12T01:39:39.709Z,8.45
2022-09-12T01:42:42.013Z,9.00
2022-09-12T01:48:22.704Z,8.50
2022-09-12T01:51:18.507Z,9.82
2022-09-12T01:54:16.915Z,8.75
2022-09-12T01:57:07.604Z,8.25
2022-09-12T01:59:58.226Z,8.10
2022-09-12T02:03:02.633Z,8.55
2022-09-12T02:05:56.858Z,11.77
2022-09-12T02:08:48.260Z,9.82
2022-09-12T02:11:35.734Z,13.20
2022-09-12T02:14:25.596Z,11.38
2022-09-12T02:17:14.470Z,11.32
2022-09-12T02:20:07.275Z,10.88
2022-09-12T02:22:54.285Z,10.07
2022-09-12T02:25:43.355Z,10.80
2022-09-12T02:28:35.726Z,10.52
2022-09-12T02:31:29.145Z,13.82
2022-09-12T02:34:15.390Z,10.13
2022-09-12T02:37:24.384Z,13.15
2022-09-12T02:40:11.334Z,11.95
2022-09-12T02:42:57.403Z,10.23
2022-09-12T02:45:44.217Z,11.30
2022-09-12T02:48:36.774Z,10.98
2022-09-12T02:51:23.873Z,10.70
2022-09-12T02:54:10.394Z,10.57
2022-09-12T02:56:56.685Z,11.15
2022-09-12T02:59:42.499Z,10.02
2022-09-12T03:02:51.998Z,10.68
2022-09-12T03:05:44.848Z,9.98
2022-09-12T03:09:06.724Z,10.43
2022-09-12T03:11:55.803Z,9.13
2022-09-12T03:15:02.190Z,9.30
2022-09-12T03:17:58.377Z,11.88
2022-09-12T03:20:53.849Z,9.38
2022-09-12T03:24:01.435Z,12.27
2022-09-12T03:27:17.500Z,8.55
2022-09-12T03:30:08.367Z,9.35
2022-09-12T03:32:55.428Z,12.05
2022-09-12T03:35:41.725Z,12.00
2022-09-12T03:38:27.878Z,12.82
2022-09-12T03:41:14.416Z,15.07
2022-09-12T03:44:00.612Z,12.35
2022-09-12T03:46:46.466Z,13.05
2022-09-12T03:49:32.950Z,13.15
2022-09-12T03:52:19.751Z,14.20
2022-09-12T03:55:06.703Z,13.43
2022-09-12T03:57:53.986Z,13.25
2022-09-12T04:00:40.967Z,12.70
2022-09-12T04:03:28.184Z,11.70
2022-09-12T04:06:17.612Z,12.37
2022-09-12T04:09:05.532Z,12.57
2022-09-12T04:11:51.265Z,12.88
2022-09-12T04:14:37.668Z,11.48
2022-09-12T04:17:23.556Z,12.23
2022-09-12T04:20:09.941Z,16.48
2022-09-12T04:22:55.700Z,12.65
2022-09-12T04:25:42.139Z,14.27
2022-09-12T04:28:29.140Z,11.63
2022-09-12T04:31:22.673Z,12.40
2022-09-12T04:34:08.832Z,14.20
2022-09-12T04:36:55.071Z,14.40
2022-09-12T04:39:41.326Z,13.30
2022-09-12T04:42:27.502Z,16.73
2022-09-12T04:45:13.703Z,15.18
2022-09-12T04:47:59.887Z,14.40
2022-09-12T04:50:45.942Z,14.43
2022-09-12T04:53:35.240Z,13.48
2022-09-12T04:56:21.901Z,15.60
2022-09-12T04:59:08.802Z,12.93
2022-09-12T05:01:54.889Z,13.93
2022-09-12T05:04:41.180Z,13.18
2022-09-12T05:07:27.029Z,15.45
2022-09-12T05:10:13.334Z,14.77
2022-09-12T05:12:58.988Z,16.15
2022-09-12T05:15:54.551Z,14.23
2022-09-12T05:18:40.323Z,14.27
2022-09-12T05:21:27.189Z,15.00
2022-09-12T05:24:13.122Z,17.55
2022-09-12T05:26:59.316Z,14.85
2022-09-12T05:29:45.305Z,13.43
2022-09-12T05:32:32.429Z,14.98
2022-09-12T05:35:18.511Z,14.90
2022-09-12T05:38:06.221Z,16.70
2022-09-12T05:40:52.379Z,15.25
2022-09-12T05:43:40.200Z,15.70
2022-09-12T05:46:31.193Z,13.73
2022-09-12T05:49:17.355Z,16.00
2022-09-12T05:52:03.637Z,17.67
2022-09-12T05:54:50.076Z,14.35
2022-09-12T05:57:36.421Z,14.30
2022-09-12T06:00:22.619Z,16.55
2022-09-12T06:03:08.909Z,13.90
2022-09-12T06:05:54.772Z,14.80
2022-09-12T06:08:52.729Z,14.05
2022-09-12T06:11:52.128Z,13.00
2022-09-12T06:14:38.909Z,14.85
2022-09-12T06:17:25.304Z,14.57
2022-09-12T06:20:11.689Z,14.00
2022-09-12T06:22:58.166Z,14.80
2022-09-12T06:25:50.118Z,14.35
2022-09-12T06:28:38.040Z,12.60
2022-09-12T06:31:26.851Z,14.80
2022-09-12T06:34:14.232Z,15.35
2022-09-12T06:37:00.863Z,16.00
2022-09-12T06:39:46.942Z,13.32
2022-09-12T06:42:33.546Z,14.68
2022-09-12T06:45:20.450Z,12.85
2022-09-12T06:48:06.910Z,13.73
2022-09-12T06:51:07.421Z,11.98
2022-09-12T06:53:57.698Z,10.43
2022-09-12T06:56:44.359Z,15.20
2022-09-12T06:59:30.580Z,12.95
2022-09-12T07:02:17.238Z,11.40
2022-09-12T07:05:04.442Z,11.23
2022-09-12T07:07:50.281Z,10.43
2022-09-12T07:10:36.742Z,11.50
2022-09-12T07:13:22.595Z,10.32
2022-09-12T07:16:10.471Z,12.30
2022-09-12T07:18:59.948Z,10.95
2022-09-12T07:21:46.421Z,11.38
2022-09-12T07:24:32.986Z,10.95
2022-09-12T07:27:19.210Z,10.82
2022-09-12T07:30:06.533Z,9.27
2022-09-12T07:32:53.858Z,10.55
2022-09-12T07:35:40.058Z,7.32
2022-09-12T07:38:26.104Z,10.52
2022-09-12T07:41:18.816Z,7.00
2022-09-12T07:44:07.034Z,8.73
2022-09-12T07:46:53.244Z,7.35
2022-09-12T07:49:39.601Z,7.35
2022-09-12T07:52:25.685Z,9.90
2022-09-12T07:55:12.218Z,8.73
2022-09-12T07:57:58.791Z,8.27
2022-09-12T08:00:45.957Z,7.95
2022-09-12T08:03:32.123Z,8.05
2022-09-12T08:06:30.322Z,5.47
2022-09-12T08:09:17.529Z,6.87
2022-09-12T08:12:03.845Z,6.80
2022-09-12T08:14:50.242Z,8.07
2022-09-12T08:17:35.940Z,4.65
2022-09-12T08:20:27.714Z,4.40
2022-09-12T08:23:14.439Z,6.87
2022-09-12T08:26:06.169Z,7.75
2022-09-12T08:31:41.335Z,6.07
2022-09-12T08:34:27.491Z,6.70
2022-09-12T08:37:14.017Z,5.80
2022-09-12T08:40:00.156Z,7.18
2022-09-12T08:43:01.235Z,6.28
2022-09-12T08:45:54.129Z,5.15
2022-09-12T08:48:41.327Z,6.40
2022-09-12T08:51:28.384Z,5.97
2022-09-12T08:54:21.873Z,20.70
2022-09-12T08:57:09.355Z,3.70
2022-09-12T08:59:56.223Z,4.57
2022-09-12T09:02:54.223Z,4.50
2022-09-12T09:06:00.581Z,4.40
2022-09-12T09:08:58.441Z,4.15
2022-09-12T09:12:06.792Z,24.35
2022-09-12T09:14:55.937Z,6.00
2022-09-12T09:17:44.835Z,6.68
2022-09-12T09:20:37.096Z,3.67
2022-09-12T09:23:42.750Z,9.25
2022-09-12T09:26:39.541Z,4.32
2022-09-12T09:29:34.222Z,3.58
2022-09-12T09:32:27.089Z,3.83
2022-09-12T09:35:36.231Z,4.37
2022-09-12T09:38:25.568Z,5.85
2022-09-12T09:41:36.212Z,11.25
2022-09-12T09:44:22.419Z,5.82
2022-09-12T09:47:10.872Z,5.22
2022-09-12T09:49:57.070Z,3.78
2022-09-12T09:52:44.418Z,3.80
2022-09-12T09:55:41.532Z,3.97
2022-09-12T09:58:32.482Z,3.70
2022-09-12T10:01:20.053Z,13.52
2022-09-12T10:04:06.646Z,6.70
2022-09-12T10:06:54.502Z,7.03
2022-09-12T10:09:41.607Z,4.25
2022-09-12T10:12:28.555Z,5.00
2022-09-12T10:15:26.584Z,3.97
2022-09-12T10:18:12.486Z,3.50
2022-09-12T10:20:59.113Z,5.72
2022-09-12T10:23:45.226Z,11.85
2022-09-12T10:26:38.761Z,8.48
2022-09-12T10:29:28.863Z,3.92
2022-09-12T10:32:38.641Z,4.15
2022-09-12T10:35:41.967Z,4.62
2022-09-12T10:38:31.712Z,5.10
2022-09-12T10:41:18.402Z,13.43
2022-09-12T10:44:10.550Z,4.68
2022-09-12T10:46:57.153Z,4.28
2022-09-12T10:49:43.719Z,6.03
2022-09-12T10:52:29.503Z,3.87
2022-09-12T10:55:16.049Z,4.45
2022-09-12T10:58:18.334Z,4.97
2022-09-12T11:01:14.185Z,4.65
2022-09-12T11:04:09.641Z,3.87
2022-09-12T11:07:15.425Z,5.20
2022-09-12T11:10:14.180Z,4.85
2022-09-12T11:13:28.336Z,3.80
2022-09-12T11:16:36.395Z,7.75
2022-09-12T11:19:36.497Z,5.85
2022-09-12T11:22:31.063Z,4.60
2022-09-12T11:25:22.398Z,11.65
2022-09-12T11:28:28.662Z,3.95
2022-09-12T11:31:31.962Z,4.57
2022-09-12T11:34:44.191Z,5.15
2022-09-12T11:37:45.661Z,4.87
2022-09-12T11:40:42.153Z,4.32
2022-09-12T11:43:51.914Z,5.25
2022-09-12T11:46:39.753Z,4.95
2022-09-12T11:49:35.863Z,5.68
2022-09-12T11:52:26.586Z,4.95
2022-09-12T11:55:18.708Z,5.85
2022-09-12T11:58:05.333Z,5.80
2022-09-12T12:00:54.620Z,6.12
2022-09-12T12:03:43.740Z,5.05
2022-09-12T12:07:10.462Z,6.03
2022-09-12T12:09:56.969Z,5.40
2022-09-12T12:12:43.018Z,4.18
2022-09-12T12:15:30.075Z,4.43
2022-09-12T12:18:17.646Z,4.12
2022-09-12T12:21:22.417Z,4.45
2022-09-12T12:24:08.594Z,3.83
2022-09-12T12:27:00.860Z,4.05
2022-09-12T12:29:46.960Z,4.93
2022-09-12T12:32:33.093Z,3.83
2022-09-12T12:35:41.137Z,4.03
2022-09-12T12:38:34.460Z,4.15
2022-09-12T12:41:20.352Z,7.05
2022-09-12T12:44:44.162Z,4.70
2022-09-12T12:47:39.701Z,5.72
2022-09-12T12:50:28.504Z,4.47
2022-09-12T12:53:25.215Z,4.55
2022-09-12T12:56:34.958Z,4.53
2022-09-12T13:02:23.105Z,3.35
2022-09-12T13:05:24.538Z,4.47
2022-09-12T13:11:07.949Z,4.20
2022-09-12T13:14:00.749Z,4.78
2022-09-12T13:17:00.298Z,6.43
2022-09-12T13:19:47.211Z,3.42
2022-09-12T13:22:45.547Z,4.40
2022-09-12T13:25:36.817Z,3.28
2022-09-12T13:28:23.029Z,3.53
2022-09-12T13:31:17.040Z,4.18
2022-09-12T13:34:05.711Z,2.05
2022-09-12T13:36:57.632Z,3.05
2022-09-12T13:39:47.906Z,2.17
2022-09-12T13:42:50.105Z,2.77
2022-09-12T13:45:38.987Z,3.85
2022-09-12T13:48:25.699Z,2.47
2022-09-12T13:51:26.640Z,3.05
2022-09-12T13:54:20.237Z,4.93
2022-09-12T13:57:41.222Z,4.35
2022-09-12T14:00:31.668Z,2.65
2022-09-12T14:04:13.041Z,2.92
2022-09-12T14:07:00.473Z,2.83
2022-09-12T14:09:56.313Z,4.03
2022-09-12T14:12:43.962Z,3.35
2022-09-12T14:15:32.543Z,2.20
2022-09-12T14:18:27.458Z,2.40
2022-09-12T14:21:40.294Z,2.65
2022-09-12T14:24:26.392Z,1.65
2022-09-12T14:27:15.546Z,2.62
2022-09-12T14:30:30.576Z,2.62
2022-09-12T14:33:20.924Z,2.47
2022-09-12T14:36:22.262Z,2.22
2022-09-12T14:42:12.295Z,2.95
2022-09-12T14:45:14.094Z,1.70
2022-09-12T14:48:00.499Z,1.62
2022-09-12T14:50:51.959Z,1.83
2022-09-12T14:56:39.223Z,1.60
2022-09-12T14:59:34.258Z,2.30
2022-09-12T15:02:22.300Z,2.65
2022-09-12T15:05:07.882Z,2.40
2022-09-12T15:07:57.265Z,2.03
2022-09-12T15:10:43.485Z,2.10
2022-09-12T15:13:39.838Z,3.03
2022-09-12T15:16:26.331Z,3.72
2022-09-12T15:19:12.555Z,2.30
2022-09-12T15:21:58.971Z,1.67
2022-09-12T15:24:45.402Z,3.22
2022-09-12T15:27:32.267Z,2.03
2022-09-12T15:30:18.997Z,1.45
2022-09-12T15:33:05.089Z,2.42
2022-09-12T15:35:52.403Z,3.35
2022-09-12T15:38:38.842Z,1.10
2022-09-12T15:41:33.434Z,2.42
2022-09-12T15:44:20.185Z,3.22
2022-09-12T15:47:06.955Z,1.87
2022-09-12T15:49:53.013Z,2.45
2022-09-12T15:52:39.478Z,1.42
2022-09-12T15:55:32.080Z,1.52
2022-09-12T15:58:18.277Z,2.33
2022-09-12T16:14:55.903Z,1.35
2022-09-12T16:17:41.869Z,1.95
2022-09-12T16:20:28.210Z,4.28
2022-09-12T16:23:14.374Z,1.77
2022-09-12T16:26:03.595Z,1.67
2022-09-12T16:28:56.910Z,1.25
2022-09-12T16:31:43.040Z,2.37
2022-09-12T16:34:29.251Z,1.15
2022-09-12T16:37:15.492Z,1.60
2022-09-12T16:40:02.855Z,2.72
2022-09-12T16:42:49.576Z,1.77
2022-09-12T16:45:35.963Z,1.25
2022-09-12T16:51:08.182Z,1.50
2022-09-12T17:10:33.186Z,2.95
2022-09-12T17:13:19.458Z,1.42
2022-09-12T17:16:11.378Z,3.30
2022-09-12T17:18:57.485Z,1.95
2022-09-12T17:21:45.489Z,3.65
2022-09-12T17:24:31.558Z,5.45
2022-09-12T17:27:18.275Z,4.37
2022-09-12T17:30:05.102Z,3.12
2022-09-12T18:18:12.091Z,3.83
2022-09-12T18:20:59.078Z,1.50
2022-09-12T18:23:45.920Z,1.67
2022-09-12T18:26:32.625Z,1.98
2022-09-12T18:29:20.066Z,3.20
2022-09-12T18:32:06.497Z,2.25
2022-09-12T18:34:53.128Z,3.65
2022-09-12T18:37:42.815Z,2.25
2022-09-12T18:40:28.988Z,4.28
2022-09-12T19:25:10.818Z,2.17
2022-09-12T19:27:57.663Z,2.50
2022-09-12T19:30:47.759Z,2.37
2022-09-12T19:33:34.325Z,3.78
2022-09-12T19:36:43.703Z,3.53
2022-09-12T20:07:16.314Z,3.85
2022-09-12T20:10:02.956Z,6.78
2022-09-12T20:12:49.344Z,6.85
2022-09-12T20:32:12.111Z,3.05
2022-09-12T20:34:58.516Z,4.28
2022-09-12T20:37:44.990Z,4.82
2022-09-12T20:40:30.729Z,5.25
2022-09-12T20:43:16.976Z,4.03
2022-09-12T22:01:01.361Z,5.55
2022-09-12T22:03:47.965Z,4.15
2022-09-12T22:06:34.514Z,5.65
2022-09-12T22:09:20.590Z,3.17
2022-09-12T22:12:06.782Z,2.90
2022-09-12T22:14:55.993Z,2.80
2022-09-12T22:17:41.897Z,3.67
2022-09-12T22:20:28.231Z,5.25
2022-09-12T22:23:32.527Z,3.40
2022-09-12T22:26:18.909Z,5.05
2022-09-12T22:29:05.088Z,4.35
2022-09-12T22:31:51.457Z,4.45
2022-09-12T22:34:37.159Z,4.18
2022-09-12T22:37:23.519Z,5.97
2022-09-12T22:40:09.977Z,2.10
2022-09-12T22:42:56.253Z,3.00
2022-09-12T22:45:42.059Z,3.67
2022-09-12T22:48:28.505Z,5.25
2022-09-12T23:16:14.929Z,4.15
2022-09-12T23:19:01.695Z,5.37
2022-09-12T23:21:48.597Z,4.75
2022-09-12T23:24:34.250Z,2.80
2022-09-12T23:27:20.583Z,3.70
2022-09-12T23:30:08.329Z,4.40
